Time;durP1;ratioP1;P1;durP2;ratioP2;P2;SDS_P1;SDS_P2;PMS_P1;PMS_P2;Temp;Humidity;BMP_temperature;BMP_pressure;BME280_temperature;BME280_humidity;BME280_pressure;Samples;Min_cycle;Max_cycle;Signal;HPM_P1;HPM_P2
2023/12/08 00:02:04;;;;;;;24.20;16.47;;;3.90;99.90;;;;;;5092059;28;20115;-71
2023/12/08 00:04:30;;;;;;;27.40;16.97;;;3.90;99.90;;;;;;5095193;28;20104;-71
2023/12/08 00:06:55;;;;;;;22.40;16.03;;;3.90;99.90;;;;;;5097433;28;20044;-71
2023/12/08 00:09:21;;;;;;;23.80;16.47;;;3.90;99.90;;;;;;5091503;28;20035;-71
2023/12/08 00:11:46;;;;;;;24.90;18.27;;;3.90;99.90;;;;;;5095167;28;20035;-72
2023/12/08 00:14:12;;;;;;;24.23;17.13;;;4.00;99.90;;;;;;5104053;28;20024;-71
2023/12/08 00:16:37;;;;;;;27.53;18.00;;;3.90;99.90;;;;;;5086759;28;20136;-71
2023/12/08 00:19:03;;;;;;;22.90;16.50;;;3.90;99.90;;;;;;5094111;28;20028;-71
2023/12/08 00:21:28;;;;;;;25.13;18.07;;;4.00;99.90;;;;;;5102873;28;20050;-71
2023/12/08 00:23:54;;;;;;;24.23;16.90;;;4.00;99.90;;;;;;5104494;28;20484;-71
2023/12/08 00:26:19;;;;;;;20.40;15.50;;;4.00;99.90;;;;;;5102554;28;20035;-71
2023/12/08 00:28:45;;;;;;;24.87;17.37;;;4.00;99.90;;;;;;5103200;28;20020;-71
2023/12/08 00:31:11;;;;;;;22.33;16.40;;;4.00;99.90;;;;;;5102278;28;20081;-74
2023/12/08 00:33:37;;;;;;;21.10;15.33;;;4.00;99.90;;;;;;5105362;28;20035;-74
2023/12/08 00:36:13;;;;;;;20.27;15.80;;;4.00;99.90;;;;;;5104232;28;20042;-74
2023/12/08 00:38:39;;;;;;;24.43;17.13;;;4.00;99.90;;;;;;5098844;28;20081;-74
2023/12/08 00:41:05;;;;;;;23.70;17.07;;;4.00;99.90;;;;;;5106359;28;20031;-74
2023/12/08 00:43:30;;;;;;;22.83;16.50;;;4.00;99.90;;;;;;5093942;28;20032;-74
2023/12/08 00:45:58;;;;;;;19.70;14.43;;;4.00;99.90;;;;;;5096445;28;20429;-74
2023/12/08 00:48:23;;;;;;;20.90;14.97;;;4.00;99.90;;;;;;5085890;28;20051;-74
2023/12/08 00:50:49;;;;;;;19.20;14.57;;;4.00;99.90;;;;;;5098055;28;20482;-75
2023/12/08 00:53:14;;;;;;;20.73;15.63;;;4.00;99.90;;;;;;5093964;28;20471;-74
2023/12/08 00:55:40;;;;;;;18.27;14.57;;;4.00;99.90;;;;;;5102026;28;20501;-74
2023/12/08 00:58:06;;;;;;;20.33;15.93;;;4.00;99.90;;;;;;5096101;28;20042;-74
2023/12/08 01:00:31;;;;;;;21.83;16.03;;;4.00;99.90;;;;;;5096702;28;20433;-74
2023/12/08 01:02:57;;;;;;;21.83;15.33;;;4.10;99.90;;;;;;5096255;28;20047;-74
2023/12/08 01:05:22;;;;;;;21.40;15.83;;;4.10;99.90;;;;;;5100206;28;20051;-74
2023/12/08 01:07:48;;;;;;;18.53;14.07;;;4.10;99.90;;;;;;5102737;28;20043;-74
2023/12/08 01:10:13;;;;;;;20.27;14.97;;;4.10;99.90;;;;;;5103710;28;20450;-74
2023/12/08 01:12:39;;;;;;;20.47;16.73;;;4.10;99.90;;;;;;5102222;28;20522;-74
2023/12/08 01:15:05;;;;;;;18.03;13.67;;;4.10;99.90;;;;;;5099887;28;20020;-74
2023/12/08 01:17:31;;;;;;;19.50;13.87;;;4.10;99.90;;;;;;5098108;28;20097;-74
2023/12/08 01:19:58;;;;;;;18.63;14.10;;;4.10;99.90;;;;;;5096685;28;20483;-74
2023/12/08 01:22:27;;;;;;;18.20;13.43;;;4.10;99.90;;;;;;5092457;28;20028;-74
2023/12/08 01:24:55;;;;;;;20.10;14.93;;;4.10;99.90;;;;;;5096930;28;20117;-75
2023/12/08 01:27:21;;;;;;;20.23;15.07;;;4.10;99.90;;;;;;5095677;28;20052;-74
2023/12/08 01:29:47;;;;;;;20.53;13.77;;;4.10;99.90;;;;;;5099112;28;20040;-71
2023/12/08 01:32:13;;;;;;;17.97;13.60;;;4.10;99.90;;;;;;5100131;28;20025;-70
2023/12/08 01:34:38;;;;;;;18.07;14.70;;;4.10;99.90;;;;;;5103483;28;20027;-70
2023/12/08 01:37:04;;;;;;;16.37;13.40;;;4.10;99.90;;;;;;5098720;28;20031;-71
2023/12/08 01:39:29;;;;;;;19.83;14.43;;;4.10;99.90;;;;;;5102170;28;20020;-71
2023/12/08 01:41:55;;;;;;;16.93;13.43;;;4.10;99.90;;;;;;5102866;28;20119;-71
2023/12/08 01:44:20;;;;;;;19.33;13.40;;;4.10;99.90;;;;;;5101091;28;20032;-71
2023/12/08 01:46:46;;;;;;;20.67;14.40;;;4.10;99.90;;;;;;5100850;28;20032;-71
2023/12/08 01:49:14;;;;;;;16.27;12.93;;;4.10;99.90;;;;;;5100291;28;20040;-71
2023/12/08 01:51:39;;;;;;;17.17;12.87;;;4.10;99.90;;;;;;5095240;28;20032;-71
2023/12/08 01:54:06;;;;;;;19.47;13.80;;;4.10;99.90;;;;;;5101285;28;20371;-71
2023/12/08 01:56:32;;;;;;;18.87;15.23;;;4.10;99.90;;;;;;5099875;28;20517;-71
2023/12/08 01:58:57;;;;;;;18.73;13.77;;;4.10;99.90;;;;;;5095457;28;20055;-71
2023/12/08 02:01:23;;;;;;;17.47;13.27;;;4.10;99.90;;;;;;5098541;28;20044;-71
2023/12/08 02:03:50;;;;;;;19.90;13.90;;;4.20;99.90;;;;;;5098643;28;20395;-71
2023/12/08 02:06:17;;;;;;;21.60;13.60;;;4.10;99.90;;;;;;5099668;28;20028;-71
2023/12/08 02:08:46;;;;;;;17.57;13.77;;;4.20;99.90;;;;;;5096705;27;20463;-71
2023/12/08 02:11:13;;;;;;;18.37;13.73;;;4.20;99.90;;;;;;5096529;28;20031;-71
2023/12/08 02:13:38;;;;;;;22.10;16.63;;;4.20;99.90;;;;;;5100750;28;20731;-71
2023/12/08 02:16:17;;;;;;;17.30;14.33;;;4.10;99.90;;;;;;5089206;28;20124;-71
2023/12/08 02:18:44;;;;;;;18.80;14.23;;;4.20;99.90;;;;;;5099553;28;20055;-71
2023/12/08 02:21:11;;;;;;;19.37;14.03;;;4.20;99.90;;;;;;5101084;28;20490;-70
2023/12/08 02:23:37;;;;;;;19.40;14.00;;;4.20;99.90;;;;;;5096246;28;20042;-71
2023/12/08 02:26:05;;;;;;;19.70;14.93;;;4.20;99.90;;;;;;5098196;28;20506;-71
2023/12/08 02:28:31;;;;;;;17.73;13.70;;;4.20;99.90;;;;;;5093492;28;20166;-71
2023/12/08 02:30:59;;;;;;;21.60;14.57;;;4.20;99.90;;;;;;5100219;28;20107;-73
2023/12/08 02:33:31;;;;;;;21.47;14.90;;;4.20;99.90;;;;;;5098261;28;20116;-73
2023/12/08 02:36:01;;;;;;;18.53;14.60;;;4.20;99.90;;;;;;5101492;28;20028;-74
2023/12/08 02:38:27;;;;;;;20.73;14.83;;;4.10;99.90;;;;;;5097314;28;20023;-74
2023/12/08 02:40:55;;;;;;;22.60;15.47;;;4.10;99.90;;;;;;5094472;28;20051;-74
2023/12/08 02:43:21;;;;;;;19.40;14.97;;;4.10;99.90;;;;;;5103476;28;20043;-74
2023/12/08 02:45:47;;;;;;;22.83;17.10;;;4.10;99.90;;;;;;5099357;28;20159;-74
2023/12/08 02:48:12;;;;;;;22.80;16.43;;;4.10;99.90;;;;;;5097197;28;20363;-74
2023/12/08 02:50:38;;;;;;;24.10;15.70;;;4.10;99.90;;;;;;5098345;28;20478;-74
2023/12/08 02:53:03;;;;;;;23.50;15.70;;;4.10;99.90;;;;;;5093890;28;20027;-74
2023/12/08 02:55:30;;;;;;;21.03;15.07;;;4.10;99.90;;;;;;5098326;28;20027;-74
2023/12/08 02:57:56;;;;;;;19.07;15.23;;;4.10;99.90;;;;;;5096786;28;20074;-74
2023/12/08 03:00:21;;;;;;;22.37;15.97;;;4.10;99.90;;;;;;5095518;28;20048;-74
2023/12/08 03:02:47;;;;;;;20.60;15.60;;;4.10;99.90;;;;;;5098524;28;20024;-74
2023/12/08 03:05:13;;;;;;;18.80;14.90;;;4.10;99.90;;;;;;5101079;28;20586;-73
2023/12/08 03:07:38;;;;;;;23.67;17.10;;;4.00;99.90;;;;;;5103834;28;20024;-73
2023/12/08 03:10:04;;;;;;;26.90;18.70;;;4.00;99.90;;;;;;5094857;28;20550;-74
2023/12/08 03:12:30;;;;;;;20.87;16.17;;;4.00;99.90;;;;;;5096187;28;20020;-74
2023/12/08 03:14:56;;;;;;;27.60;18.63;;;4.00;99.90;;;;;;5100288;28;20032;-74
2023/12/08 03:17:22;;;;;;;25.27;18.87;;;4.00;99.90;;;;;;5106605;28;20049;-74
2023/12/08 03:19:47;;;;;;;21.23;16.50;;;4.00;99.90;;;;;;5102455;28;20032;-74
2023/12/08 03:22:13;;;;;;;26.93;18.17;;;3.90;99.90;;;;;;5098515;28;20024;-74
2023/12/08 03:24:38;;;;;;;26.37;17.67;;;3.90;99.90;;;;;;5095129;28;20027;-73
2023/12/08 03:27:04;;;;;;;27.07;18.13;;;3.90;99.90;;;;;;5098003;28;20079;-74
2023/12/08 03:29:29;;;;;;;25.50;18.10;;;3.90;99.90;;;;;;5099142;28;20038;-74
2023/12/08 03:31:55;;;;;;;25.37;17.97;;;3.90;99.90;;;;;;5094662;28;20108;-74
2023/12/08 03:34:21;;;;;;;22.63;17.20;;;3.90;99.90;;;;;;5095220;28;20028;-74
2023/12/08 03:36:46;;;;;;;22.93;16.03;;;3.90;99.90;;;;;;5092777;28;20081;-71
2023/12/08 03:39:12;;;;;;;24.03;17.67;;;3.90;99.90;;;;;;5098031;28;20021;-71
2023/12/08 03:41:37;;;;;;;24.57;18.87;;;3.90;99.90;;;;;;5102467;28;20016;-70
2023/12/08 03:44:03;;;;;;;27.73;18.87;;;3.80;99.90;;;;;;5091309;28;20032;-70
2023/12/08 03:46:28;;;;;;;25.90;19.30;;;3.80;99.90;;;;;;5098662;28;20036;-70
2023/12/08 03:48:54;;;;;;;24.70;17.50;;;3.90;99.90;;;;;;5103383;28;20840;-71
2023/12/08 03:51:19;;;;;;;29.03;20.67;;;3.80;99.90;;;;;;5104090;28;20386;-71
2023/12/08 03:53:45;;;;;;;27.83;19.17;;;3.80;99.90;;;;;;5100622;28;20114;-71
2023/12/08 03:56:10;;;;;;;28.03;20.30;;;3.80;99.90;;;;;;5102523;28;20494;-71
2023/12/08 03:58:36;;;;;;;27.87;18.33;;;3.80;99.90;;;;;;5102523;28;20107;-70
2023/12/08 04:01:01;;;;;;;24.87;17.73;;;3.90;99.90;;;;;;5099609;28;20028;-70
2023/12/08 04:03:27;;;;;;;26.80;19.20;;;3.90;99.90;;;;;;5100914;28;20043;-71
2023/12/08 04:05:52;;;;;;;29.37;18.70;;;3.90;99.90;;;;;;5098012;28;20032;-71
2023/12/08 04:08:18;;;;;;;26.53;18.77;;;3.90;99.90;;;;;;5100585;28;20511;-71
2023/12/08 04:10:44;;;;;;;30.40;18.33;;;3.90;99.90;;;;;;5101209;28;20399;-71
2023/12/08 04:13:10;;;;;;;26.40;18.90;;;3.90;99.90;;;;;;5102072;28;20020;-71
2023/12/08 04:15:35;;;;;;;26.77;19.20;;;3.90;99.90;;;;;;5100907;28;20510;-71
2023/12/08 04:18:01;;;;;;;29.27;20.80;;;4.00;99.90;;;;;;5101422;28;20475;-71
2023/12/08 04:20:27;;;;;;;25.90;19.17;;;4.00;99.90;;;;;;5100498;28;20032;-71
2023/12/08 04:22:52;;;;;;;29.90;21.00;;;4.00;99.90;;;;;;5099415;28;20055;-71
2023/12/08 04:25:18;;;;;;;28.00;19.67;;;4.00;99.90;;;;;;5100869;28;20039;-70
2023/12/08 04:27:43;;;;;;;28.83;19.73;;;4.00;99.90;;;;;;5098042;28;20019;-71
2023/12/08 04:30:09;;;;;;;25.43;17.03;;;4.00;99.90;;;;;;5102931;28;20023;-71
2023/12/08 04:32:35;;;;;;;27.57;18.63;;;4.00;99.90;;;;;;5099642;28;20061;-71
2023/12/08 04:35:00;;;;;;;31.83;20.97;;;4.10;99.90;;;;;;5103478;28;20019;-71
2023/12/08 04:37:26;;;;;;;27.80;18.67;;;4.00;99.90;;;;;;5102702;28;20025;-71
2023/12/08 04:39:51;;;;;;;29.07;17.90;;;4.00;99.90;;;;;;5102421;28;20023;-71
2023/12/08 04:42:17;;;;;;;25.70;17.50;;;4.00;99.90;;;;;;5100627;28;20028;-70
2023/12/08 04:44:43;;;;;;;27.97;18.57;;;4.00;99.90;;;;;;5097251;28;20020;-70
2023/12/08 04:47:12;;;;;;;30.17;20.17;;;4.00;99.90;;;;;;5101136;28;20036;-70
2023/12/08 04:49:37;;;;;;;27.73;19.63;;;4.00;99.90;;;;;;5102715;28;20060;-70
2023/12/08 04:52:03;;;;;;;26.07;17.80;;;4.00;99.90;;;;;;5097637;28;20055;-70
2023/12/08 04:54:29;;;;;;;31.63;19.60;;;4.00;99.90;;;;;;5100615;28;20032;-71
2023/12/08 04:56:55;;;;;;;24.87;18.07;;;4.00;99.90;;;;;;5098593;28;20043;-71
2023/12/08 04:59:20;;;;;;;28.97;18.80;;;4.10;99.90;;;;;;5100438;28;20030;-70
2023/12/08 05:01:52;;;;;;;29.87;20.50;;;4.10;99.90;;;;;;5094837;28;20020;-70
2023/12/08 05:04:21;;;;;;;28.57;18.77;;;4.10;99.90;;;;;;5093840;28;20028;-70
2023/12/08 05:06:47;;;;;;;33.03;21.77;;;4.00;99.90;;;;;;5095188;28;20024;-70
2023/12/08 05:09:13;;;;;;;29.10;19.13;;;4.00;99.90;;;;;;5102898;28;20078;-70
2023/12/08 05:11:38;;;;;;;30.00;20.13;;;4.00;99.90;;;;;;5101756;28;20028;-70
2023/12/08 05:14:04;;;;;;;27.60;19.90;;;4.10;99.90;;;;;;5100473;28;20035;-70
2023/12/08 05:16:30;;;;;;;31.47;20.27;;;4.10;99.90;;;;;;5101622;28;20023;-70
2023/12/08 05:18:55;;;;;;;35.03;23.03;;;4.10;99.90;;;;;;5096196;28;20111;-70
2023/12/08 05:21:21;;;;;;;34.57;21.50;;;4.10;99.90;;;;;;5101240;28;20108;-70
2023/12/08 05:23:47;;;;;;;31.57;20.97;;;4.10;99.90;;;;;;5098551;28;20031;-70
2023/12/08 05:26:12;;;;;;;33.47;22.43;;;4.00;99.90;;;;;;5096213;28;20051;-70
2023/12/08 05:28:38;;;;;;;31.60;20.90;;;4.00;99.90;;;;;;5100152;28;20440;-71
2023/12/08 05:31:04;;;;;;;37.90;21.87;;;4.00;99.90;;;;;;5102387;28;20032;-71
2023/12/08 05:33:30;;;;;;;30.73;20.80;;;4.00;99.90;;;;;;5097366;28;20030;-71
2023/12/08 05:35:56;;;;;;;33.70;22.27;;;4.00;99.90;;;;;;5100214;28;20383;-71
2023/12/08 05:38:21;;;;;;;32.70;20.73;;;4.00;99.90;;;;;;5091928;28;20027;-71
2023/12/08 05:40:47;;;;;;;27.77;19.87;;;4.00;99.90;;;;;;5096944;28;20398;-71
2023/12/08 05:43:12;;;;;;;29.63;20.47;;;4.00;99.90;;;;;;5096831;28;20031;-71
2023/12/08 05:45:38;;;;;;;36.43;23.47;;;4.00;99.90;;;;;;5097938;28;20032;-71
2023/12/08 05:48:04;;;;;;;32.87;20.80;;;4.10;99.90;;;;;;5101292;28;20482;-71
2023/12/08 05:50:30;;;;;;;33.03;20.73;;;4.10;99.90;;;;;;5102204;28;20024;-71
2023/12/08 05:52:56;;;;;;;36.97;22.33;;;4.00;99.90;;;;;;5082456;28;20031;-71
2023/12/08 05:55:22;;;;;;;36.17;23.73;;;4.10;99.90;;;;;;5098768;28;20022;-70
2023/12/08 05:57:47;;;;;;;35.10;22.17;;;4.10;99.90;;;;;;5094522;28;20023;-71
2023/12/08 06:00:13;;;;;;;32.30;21.30;;;4.10;99.90;;;;;;5098520;28;20031;-71
2023/12/08 06:02:39;;;;;;;33.53;21.97;;;4.10;99.90;;;;;;5101764;28;20035;-71
2023/12/08 06:05:05;;;;;;;30.47;21.57;;;4.10;99.90;;;;;;5098040;28;20410;-71
2023/12/08 06:07:30;;;;;;;33.23;22.13;;;4.10;99.90;;;;;;5096849;28;20019;-71
2023/12/08 06:09:56;;;;;;;30.63;21.87;;;4.10;99.90;;;;;;5094094;28;20039;-71
2023/12/08 06:12:21;;;;;;;33.43;22.60;;;4.20;99.90;;;;;;5101610;28;20031;-71
2023/12/08 06:14:47;;;;;;;32.80;22.83;;;4.20;99.90;;;;;;5097224;28;20020;-71
2023/12/08 06:17:12;;;;;;;35.17;23.93;;;4.10;99.90;;;;;;5094729;28;20456;-71
2023/12/08 06:19:38;;;;;;;36.53;23.30;;;4.20;99.90;;;;;;5102448;28;20118;-71
2023/12/08 06:22:04;;;;;;;32.50;22.73;;;4.20;99.90;;;;;;5100058;28;20028;-70
2023/12/08 06:24:30;;;;;;;35.43;22.57;;;4.20;99.90;;;;;;5096658;28;20024;-70
2023/12/08 06:26:55;;;;;;;35.30;23.80;;;4.20;99.90;;;;;;5101399;28;20557;-70
2023/12/08 06:29:21;;;;;;;36.80;23.57;;;4.20;99.90;;;;;;5098100;28;20101;-70
2023/12/08 06:31:46;;;;;;;36.37;24.07;;;4.20;99.90;;;;;;5102495;28;20024;-71
2023/12/08 06:34:12;;;;;;;37.77;25.53;;;4.20;99.90;;;;;;5094852;28;20433;-71
2023/12/08 06:36:45;;;;;;;37.90;24.80;;;4.30;99.90;;;;;;5092716;28;20041;-71
2023/12/08 06:39:12;;;;;;;34.77;21.93;;;4.30;99.90;;;;;;5100804;28;20027;-71
2023/12/08 06:41:38;;;;;;;38.37;24.37;;;4.30;99.90;;;;;;5099843;28;20023;-71
2023/12/08 06:44:03;;;;;;;36.47;23.47;;;4.30;99.90;;;;;;5095226;28;20019;-71
2023/12/08 06:46:29;;;;;;;37.10;24.67;;;4.30;99.90;;;;;;5102440;28;20084;-71
2023/12/08 06:48:54;;;;;;;35.60;24.13;;;4.30;99.90;;;;;;5099781;28;20452;-71
2023/12/08 06:51:20;;;;;;;36.60;24.57;;;4.30;99.90;;;;;;5100659;28;20470;-71
2023/12/08 06:53:46;;;;;;;38.57;24.23;;;4.30;99.90;;;;;;5094799;28;20048;-71
2023/12/08 06:56:11;;;;;;;38.63;25.17;;;4.30;99.90;;;;;;5096123;28;20032;-71
2023/12/08 06:58:37;;;;;;;36.17;24.37;;;4.30;99.90;;;;;;5100580;28;20016;-71
2023/12/08 07:01:03;;;;;;;32.23;22.50;;;4.30;99.90;;;;;;5092198;28;20069;-71
2023/12/08 07:03:28;;;;;;;33.43;23.00;;;4.30;99.90;;;;;;5096653;28;20104;-71
2023/12/08 07:05:54;;;;;;;36.03;22.67;;;4.40;99.90;;;;;;5100425;28;20469;-71
2023/12/08 07:08:19;;;;;;;41.57;25.30;;;4.40;99.90;;;;;;5098586;28;20493;-71
2023/12/08 07:10:45;;;;;;;35.47;23.17;;;4.40;99.90;;;;;;5100037;28;20024;-71
2023/12/08 07:13:10;;;;;;;38.03;25.53;;;4.40;99.90;;;;;;5097665;28;20031;-71
2023/12/08 07:15:36;;;;;;;39.40;24.47;;;4.40;99.90;;;;;;5099258;28;20097;-71
2023/12/08 07:18:01;;;;;;;39.00;24.23;;;4.40;99.90;;;;;;5099641;28;20027;-71
2023/12/08 07:20:28;;;;;;;40.33;24.37;;;4.40;99.90;;;;;;5102116;28;20023;-71
2023/12/08 07:22:53;;;;;;;41.43;26.63;;;4.40;99.90;;;;;;5094201;28;20020;-71
2023/12/08 07:25:19;;;;;;;33.80;21.97;;;4.40;99.90;;;;;;5099188;28;20119;-71
2023/12/08 07:27:45;;;;;;;40.47;24.70;;;4.40;99.90;;;;;;5096293;28;20032;-70
2023/12/08 07:30:10;;;;;;;34.90;24.13;;;4.40;99.90;;;;;;5100096;28;20027;-70
2023/12/08 07:32:36;;;;;;;33.87;21.73;;;4.50;99.90;;;;;;5091363;28;20024;-70
2023/12/08 07:35:01;;;;;;;40.40;25.83;;;4.50;99.90;;;;;;5100088;28;20483;-70
2023/12/08 07:37:27;;;;;;;35.47;24.47;;;4.50;99.90;;;;;;5098955;28;20052;-70
2023/12/08 07:39:53;;;;;;;32.33;22.07;;;4.50;99.90;;;;;;5101367;28;20032;-70
2023/12/08 07:42:19;;;;;;;38.37;22.50;;;4.50;99.90;;;;;;5097149;28;20028;-71
2023/12/08 07:44:45;;;;;;;33.03;23.13;;;4.60;99.90;;;;;;5098647;28;20031;-70
2023/12/08 07:47:10;;;;;;;38.63;23.63;;;4.60;99.90;;;;;;5097699;28;20030;-73
2023/12/08 07:49:36;;;;;;;36.90;24.77;;;4.60;99.90;;;;;;5097559;28;20016;-73
2023/12/08 07:52:02;;;;;;;39.60;24.50;;;4.60;99.90;;;;;;5092412;28;20054;-72
2023/12/08 07:54:31;;;;;;;35.60;23.00;;;4.60;99.90;;;;;;5097660;28;20056;-72
2023/12/08 07:56:58;;;;;;;40.90;24.40;;;4.60;99.90;;;;;;5102197;28;20031;-72
2023/12/08 07:59:23;;;;;;;38.40;23.80;;;4.70;99.90;;;;;;5090762;28;20028;-72
2023/12/08 08:01:49;;;;;;;45.67;25.20;;;4.70;99.90;;;;;;5100134;28;20376;-72
2023/12/08 08:04:14;;;;;;;35.27;22.23;;;4.70;99.90;;;;;;5097249;28;20024;-72
2023/12/08 08:06:40;;;;;;;54.13;28.27;;;4.70;99.90;;;;;;5098384;28;20020;-72
2023/12/08 08:09:07;;;;;;;40.83;23.40;;;4.70;99.90;;;;;;5094124;28;20391;-73
2023/12/08 08:11:32;;;;;;;41.47;24.13;;;4.70;99.90;;;;;;5094965;28;20012;-72
2023/12/08 08:13:58;;;;;;;44.43;22.70;;;4.70;99.90;;;;;;5099822;28;20032;-72
2023/12/08 08:16:23;;;;;;;45.77;24.77;;;4.70;99.90;;;;;;5101358;28;20027;-73
2023/12/08 08:18:49;;;;;;;41.93;24.27;;;4.80;99.90;;;;;;5099255;28;20070;-73
2023/12/08 08:21:15;;;;;;;38.43;23.93;;;4.80;99.90;;;;;;5099364;28;20051;-72
2023/12/08 08:23:41;;;;;;;46.40;21.93;;;4.80;99.90;;;;;;5099603;28;20435;-72
2023/12/08 08:26:06;;;;;;;53.77;25.57;;;4.80;99.90;;;;;;5099981;28;20044;-72
2023/12/08 08:28:32;;;;;;;43.27;24.03;;;4.80;99.90;;;;;;5095699;28;20024;-72
2023/12/08 08:30:58;;;;;;;38.93;24.17;;;4.90;99.90;;;;;;5094752;28;20077;-72
2023/12/08 08:33:23;;;;;;;46.03;22.87;;;4.90;99.90;;;;;;5100974;28;20483;-73
2023/12/08 08:35:49;;;;;;;43.80;24.37;;;4.90;99.90;;;;;;5101384;28;20024;-73
2023/12/08 08:38:15;;;;;;;47.13;24.43;;;4.90;99.90;;;;;;5102496;28;20412;-72
2023/12/08 08:40:41;;;;;;;37.90;22.43;;;4.90;99.90;;;;;;5101343;28;20012;-72
2023/12/08 08:43:06;;;;;;;38.13;22.87;;;5.00;99.90;;;;;;5099631;28;20023;-73
2023/12/08 08:45:32;;;;;;;41.73;24.50;;;5.00;99.90;;;;;;5097109;28;20032;-73
2023/12/08 08:47:58;;;;;;;48.83;24.37;;;5.00;99.90;;;;;;5094084;28;20447;-73
2023/12/08 08:50:23;;;;;;;41.77;22.77;;;5.00;99.90;;;;;;5095665;28;20031;-72
2023/12/08 08:52:49;;;;;;;36.17;22.80;;;5.10;99.90;;;;;;5089921;28;20024;-72
2023/12/08 08:55:15;;;;;;;35.07;20.43;;;5.10;99.90;;;;;;5103760;28;20024;-73
2023/12/08 08:57:41;;;;;;;38.17;23.07;;;5.10;99.90;;;;;;5102114;28;20531;-73
2023/12/08 09:00:11;;;;;;;42.43;23.77;;;5.10;99.90;;;;;;5098465;28;20110;-73
2023/12/08 09:02:37;;;;;;;49.83;24.97;;;5.10;99.90;;;;;;5102041;28;20015;-73
2023/12/08 09:05:04;;;;;;;37.97;21.50;;;5.10;99.90;;;;;;5103064;28;20031;-73
2023/12/08 09:07:29;;;;;;;44.33;24.00;;;5.10;99.90;;;;;;5094412;28;20620;-73
2023/12/08 09:09:55;;;;;;;44.90;24.00;;;5.20;99.90;;;;;;5103131;28;20119;-73
2023/12/08 09:12:20;;;;;;;41.60;23.87;;;5.20;99.90;;;;;;5101557;28;20026;-73
2023/12/08 09:14:46;;;;;;;46.27;24.33;;;5.20;99.90;;;;;;5099249;28;20107;-74
2023/12/08 09:17:11;;;;;;;43.07;23.37;;;5.30;99.90;;;;;;5102175;28;20039;-73
2023/12/08 09:19:37;;;;;;;38.73;21.90;;;5.30;99.90;;;;;;5103028;28;20038;-73
2023/12/08 09:22:04;;;;;;;47.87;23.63;;;5.30;99.90;;;;;;5099365;28;20072;-73
2023/12/08 09:24:30;;;;;;;41.20;23.37;;;5.30;99.90;;;;;;5102449;28;20023;-73
2023/12/08 09:26:56;;;;;;;37.10;22.23;;;5.30;99.90;;;;;;5096370;28;20089;-71
2023/12/08 09:29:22;;;;;;;39.13;23.30;;;5.30;99.90;;;;;;5103890;28;20028;-73
2023/12/08 09:31:48;;;;;;;44.20;23.10;;;5.40;99.90;;;;;;5104030;28;20451;-73
2023/12/08 09:34:13;;;;;;;52.70;26.03;;;5.40;99.90;;;;;;5101689;28;20089;-74
2023/12/08 09:36:39;;;;;;;38.17;22.37;;;5.40;99.90;;;;;;5102617;28;20065;-74
2023/12/08 09:39:04;;;;;;;53.03;25.13;;;5.40;99.90;;;;;;5103557;28;20039;-74
2023/12/08 09:41:33;;;;;;;33.53;21.13;;;5.50;99.90;;;;;;5100835;28;20053;-73
2023/12/08 09:44:12;;;;;;;47.53;25.20;;;5.50;99.90;;;;;;5094532;28;20054;-73
2023/12/08 09:46:45;;;;;;;48.30;25.30;;;5.50;99.90;;;;;;5093245;28;20019;-74
2023/12/08 09:49:29;;;;;;;43.17;24.73;;;5.50;99.90;;;;;;5098818;28;20035;-73
2023/12/08 09:51:55;;;;;;;48.25;25.00;;;5.60;99.90;;;;;;5101921;28;20078;-74
2023/12/08 09:54:22;;;;;;;47.67;27.53;;;5.50;99.90;;;;;;5098900;28;20475;-74
2023/12/08 09:56:54;;;;;;;47.93;26.63;;;5.50;99.90;;;;;;5100541;28;20055;-74
2023/12/08 09:59:27;;;;;;;55.30;27.13;;;5.50;99.90;;;;;;5100763;28;20032;-74
2023/12/08 10:01:54;;;;;;;66.03;30.90;;;5.60;99.90;;;;;;5096695;28;20103;-73
2023/12/08 10:04:20;;;;;;;56.57;29.77;;;5.60;99.90;;;;;;5099582;28;20494;-73
2023/12/08 10:06:46;;;;;;;71.07;32.97;;;5.60;99.90;;;;;;5096610;28;20024;-73
2023/12/08 10:09:15;;;;;;;58.93;30.50;;;5.70;99.90;;;;;;5100628;28;20506;-74
2023/12/08 10:11:41;;;;;;;65.23;32.93;;;5.70;99.90;;;;;;5101576;28;20371;-73
2023/12/08 10:14:07;;;;;;;70.70;32.50;;;5.70;99.90;;;;;;5099681;28;20020;-73
2023/12/08 10:16:33;;;;;;;80.53;33.93;;;5.70;99.90;;;;;;5088438;28;20028;-74
2023/12/08 10:19:07;;;;;;;68.10;32.37;;;5.80;99.90;;;;;;5094833;28;20026;-73
2023/12/08 10:21:36;;;;;;;72.23;33.97;;;5.80;99.90;;;;;;5091535;28;20020;-73
2023/12/08 10:24:03;;;;;;;87.47;35.73;;;5.90;99.90;;;;;;5093402;28;20409;-73
2023/12/08 10:26:30;;;;;;;61.17;32.00;;;5.90;99.90;;;;;;5093270;28;20359;-73
2023/12/08 10:28:57;;;;;;;74.20;35.37;;;5.90;99.90;;;;;;5092229;28;20025;-73
2023/12/08 10:31:22;;;;;;;78.27;36.27;;;6.00;99.90;;;;;;5096149;28;20091;-73
2023/12/08 10:33:49;;;;;;;66.80;28.30;;;6.00;99.90;;;;;;5099191;28;20386;-73
2023/12/08 10:36:14;;;;;;;98.30;36.83;;;6.00;99.90;;;;;;5092998;28;20036;-73
2023/12/08 10:38:40;;;;;;;101.57;36.17;;;6.10;99.90;;;;;;5099997;28;20026;-74
2023/12/08 10:41:10;;;;;;;84.73;36.80;;;6.10;99.90;;;;;;5090556;28;20020;-74
2023/12/08 10:43:40;;;;;;;85.70;39.13;;;6.10;99.90;;;;;;5091427;28;20028;-74
2023/12/08 10:46:07;;;;;;;132.00;41.70;;;6.20;99.90;;;;;;5088163;28;20020;-73
2023/12/08 10:48:34;;;;;;;86.00;38.60;;;6.20;99.90;;;;;;5098380;28;20024;-73
2023/12/08 10:51:00;;;;;;;147.23;46.30;;;6.20;99.90;;;;;;5095976;28;20487;-73
2023/12/08 10:53:26;;;;;;;93.17;38.43;;;6.20;99.90;;;;;;5097148;28;20110;-73
2023/12/08 10:56:04;;;;;;;85.50;37.53;;;6.20;99.90;;;;;;5093798;28;20020;-74
2023/12/08 10:58:33;;;;;;;92.73;39.90;;;6.30;99.90;;;;;;5101392;28;20535;-74
2023/12/08 11:01:00;;;;;;;123.80;41.00;;;6.20;99.90;;;;;;5093011;28;20024;-73
2023/12/08 11:03:32;;;;;;;106.67;44.37;;;6.30;99.90;;;;;;5094162;28;20121;-73
2023/12/08 11:06:10;;;;;;;97.13;39.90;;;6.40;99.90;;;;;;5093018;28;20035;-73
2023/12/08 11:08:37;;;;;;;128.57;42.53;;;6.40;99.90;;;;;;5095554;28;20065;-74
2023/12/08 11:11:04;;;;;;;89.17;39.60;;;6.40;99.90;;;;;;5095221;28;20027;-73
2023/12/08 11:13:35;;;;;;;91.87;42.30;;;6.40;99.90;;;;;;5095401;28;20107;-74
2023/12/08 11:16:13;;;;;;;103.50;43.07;;;6.50;99.90;;;;;;5087756;28;20028;-74
2023/12/08 11:18:40;;;;;;;101.57;41.13;;;6.50;99.90;;;;;;5093888;28;20016;-74
2023/12/08 11:21:08;;;;;;;90.73;40.50;;;6.50;99.90;;;;;;5091434;28;20436;-74
2023/12/08 11:23:40;;;;;;;90.00;40.40;;;6.50;99.90;;;;;;5093811;28;20012;-73
2023/12/08 11:26:17;;;;;;;90.50;41.67;;;6.60;99.90;;;;;;5098847;28;20069;-73
2023/12/08 11:29:20;;;;;;;105.20;41.20;;;6.60;99.90;;;;;;5090793;28;20024;-74
2023/12/08 11:32:09;;;;;;;101.57;37.30;;;6.70;99.90;;;;;;5096780;28;20024;-73
2023/12/08 11:34:42;;;;;;;124.90;44.27;;;6.70;99.90;;;;;;5098477;28;20066;-73
2023/12/08 11:37:08;;;;;;;89.90;40.73;;;6.80;99.90;;;;;;5096352;28;20121;-74
2023/12/08 11:39:33;;;;;;;124.93;42.90;;;6.80;99.90;;;;;;5095646;28;20040;-74
2023/12/08 11:41:59;;;;;;;102.73;42.73;;;6.90;99.90;;;;;;5095138;28;20116;-74
2023/12/08 11:44:25;;;;;;;169.70;47.27;;;6.90;99.90;;;;;;5097426;28;20024;-73
2023/12/08 11:47:03;;;;;;;95.37;43.37;;;7.00;99.90;;;;;;5095629;28;20028;-73
2023/12/08 11:49:29;;;;;;;102.30;42.23;;;7.00;99.90;;;;;;5094541;28;20052;-73
2023/12/08 11:52:10;;;;;;;106.23;42.23;;;7.00;99.90;;;;;;5093557;28;20059;-73
2023/12/08 11:54:58;;;;;;;105.83;44.27;;;7.10;99.90;;;;;;5091524;28;20394;-74
2023/12/08 11:57:24;;;;;;;104.20;41.90;;;7.10;99.90;;;;;;5087625;28;20024;-74
2023/12/08 11:59:50;;;;;;;162.07;47.93;;;7.10;99.90;;;;;;5096014;28;20024;-75
2023/12/08 12:02:16;;;;;;;137.87;47.30;;;7.10;99.90;;;;;;5096347;28;20039;-74
2023/12/08 12:04:43;;;;;;;113.53;44.37;;;7.20;99.90;;;;;;5099762;28;20035;-74
2023/12/08 12:07:08;;;;;;;172.77;46.93;;;7.20;99.90;;;;;;5094825;28;20040;-74
2023/12/08 12:09:34;;;;;;;148.97;44.73;;;7.20;99.90;;;;;;5100424;28;20072;-74
2023/12/08 12:12:18;;;;;;;115.87;44.90;;;7.20;99.90;;;;;;5093080;28;20020;-74
2023/12/08 12:14:46;;;;;;;193.57;50.83;;;7.30;99.90;;;;;;5100642;28;20016;-74
2023/12/08 12:17:12;;;;;;;188.87;50.10;;;7.30;99.90;;;;;;5097113;28;20035;-74
2023/12/08 12:19:38;;;;;;;135.70;45.20;;;7.30;99.90;;;;;;5095427;28;20031;-74
2023/12/08 12:22:04;;;;;;;164.70;46.10;;;7.30;99.90;;;;;;5103023;28;20065;-74
2023/12/08 12:24:30;;;;;;;138.30;46.97;;;7.30;99.90;;;;;;5104286;28;20047;-74
2023/12/08 12:26:56;;;;;;;158.77;44.17;;;7.40;99.90;;;;;;5095062;28;20508;-74
2023/12/08 12:29:23;;;;;;;136.43;43.97;;;7.40;99.90;;;;;;5104562;28;20038;-75
2023/12/08 12:31:48;;;;;;;97.13;38.93;;;7.50;99.90;;;;;;5101208;28;20058;-74
2023/12/08 12:34:16;;;;;;;91.67;40.97;;;7.50;99.90;;;;;;5096051;28;20035;-74